Time;durP1;ratioP1;P1;durP2;ratioP2;P2;SDS_P1;SDS_P2;PMS_P1;PMS_P2;Temp;Humidity;BMP_temperature;BMP_pressure;BME280_temperature;BME280_humidity;BME280_pressure;Samples;Min_cycle;Max_cycle;Signal;HPM_P1;HPM_P2
2023/04/13 00:01:06;;;;;;;0.20;0.10;;;;;;;;;;4964707;28;20038;-84
2023/04/13 00:03:32;;;;;;;0.20;0.13;;;;;;;;;;4964790;28;20042;-84
2023/04/13 00:05:58;;;;;;;0.20;0.10;;;;;;;;;;4973364;28;20038;-82
2023/04/13 00:08:24;;;;;;;0.20;0.10;;;;;;;;;;4977106;28;20050;-84
2023/04/13 00:10:50;;;;;;;0.20;0.10;;;;;;;;;;4973748;28;20046;-86
2023/04/13 00:13:20;;;;;;;0.20;0.10;;;;;;;;;;4982181;28;20035;-84
2023/04/13 00:15:46;;;;;;;0.20;0.10;;;;;;;;;;4973824;28;20112;-85
2023/04/13 00:18:12;;;;;;;0.20;0.10;;;;;;;;;;4970258;28;20042;-83
2023/04/13 00:20:40;;;;;;;0.20;0.03;;;;;;;;;;4977354;28;20058;-85
2023/04/13 00:23:12;;;;;;;0.20;0.10;;;;;;;;;;4969140;28;20518;-88
2023/04/13 00:25:38;;;;;;;0.20;0.10;;;;;;;;;;4967619;28;20077;-84
2023/04/13 00:28:05;;;;;;;0.20;0.10;;;;;;;;;;4975503;28;20066;-85
2023/04/13 00:30:31;;;;;;;0.20;0.10;;;;;;;;;;4976889;28;20503;-84
2023/04/13 00:32:57;;;;;;;0.20;0.10;;;;;;;;;;4966318;28;20114;-85
2023/04/13 00:35:25;;;;;;;0.20;0.10;;;;;;;;;;4972429;28;20698;-84
2023/04/13 00:37:51;;;;;;;0.20;0.08;;;;;;;;;;4973386;28;20084;-88
2023/04/13 00:40:17;;;;;;;0.47;0.47;;;;;;;;;;4966166;28;20423;-87
2023/04/13 00:42:44;;;;;;;0.20;0.10;;;;;;;;;;4983867;28;20506;-85
2023/04/13 00:45:12;;;;;;;0.20;0.10;;;;;;;;;;4969546;28;20046;-85
2023/04/13 00:47:40;;;;;;;0.20;0.10;;;;;;;;;;4976900;28;20116;-86
2023/04/13 00:50:06;;;;;;;0.20;0.10;;;;;;;;;;4971827;28;20097;-84
2023/04/13 00:52:39;;;;;;;0.20;0.10;;;;;;;;;;4967489;28;20043;-86
2023/04/13 00:55:05;;;;;;;;;;;;;;;;;;4974836;28;20064;-86
2023/04/13 00:57:31;;;;;;;0.52;0.20;;;;;;;;;;4974609;28;19925;-85
2023/04/13 00:59:58;;;;;;;0.20;0.10;;;;;;;;;;4970178;28;20054;-86
2023/04/13 01:02:26;;;;;;;0.20;0.10;;;;;;;;;;4977356;28;20042;-87
2023/04/13 01:04:53;;;;;;;0.20;0.10;;;;;;;;;;4981749;28;20425;-85
2023/04/13 01:07:40;;;;;;;0.20;0.10;;;;;;;;;;4977059;28;20105;-85
2023/04/13 01:10:18;;;;;;;0.20;0.10;;;;;;;;;;4975698;28;20087;-83
2023/04/13 01:12:50;;;;;;;0.20;0.10;;;;;;;;;;4975531;28;20042;-84
2023/04/13 01:15:17;;;;;;;0.20;0.10;;;;;;;;;;4974193;28;20051;-82
2023/04/13 01:17:47;;;;;;;0.20;0.10;;;;;;;;;;4968585;28;20042;-84
2023/04/13 01:20:14;;;;;;;0.35;0.17;;;;;;;;;;4968108;28;20043;-83
2023/04/13 01:22:51;;;;;;;0.20;0.10;;;;;;;;;;4978705;28;20448;-83
2023/04/13 01:25:36;;;;;;;0.20;0.10;;;;;;;;;;4977629;28;20594;-83
2023/04/13 01:28:02;;;;;;;0.20;0.10;;;;;;;;;;4976822;28;20339;-83
2023/04/13 01:30:30;;;;;;;0.20;0.10;;;;;;;;;;4982338;28;20137;-83
2023/04/13 01:32:58;;;;;;;0.20;0.10;;;;;;;;;;4982516;28;20052;-83
2023/04/13 01:35:24;;;;;;;0.20;0.10;;;;;;;;;;4977801;28;20164;-82
2023/04/13 01:37:51;;;;;;;0.20;0.10;;;;;;;;;;4979386;28;20423;-82
2023/04/13 01:40:20;;;;;;;0.20;0.10;;;;;;;;;;4967495;28;20046;-83
2023/04/13 01:42:46;;;;;;;0.20;0.10;;;;;;;;;;4975748;28;20046;-81
2023/04/13 01:45:24;;;;;;;0.20;0.10;;;;;;;;;;4967740;28;20114;-84
2023/04/13 01:47:54;;;;;;;0.20;0.10;;;;;;;;;;4976996;28;20050;-85
2023/04/13 01:50:28;;;;;;;0.20;0.10;;;;;;;;;;4976998;28;20053;-83
2023/04/13 01:52:57;;;;;;;0.20;0.10;;;;;;;;;;4973309;28;20042;-83
2023/04/13 01:55:23;;;;;;;0.20;0.10;;;;;;;;;;4976503;28;20043;-82
2023/04/13 01:57:54;;;;;;;0.20;0.10;;;;;;;;;;4966870;28;20454;-84
2023/04/13 02:00:20;;;;;;;0.20;0.10;;;;;;;;;;4962017;28;20042;-82
2023/04/13 02:02:47;;;;;;;0.20;0.10;;;;;;;;;;4962698;28;20043;-83
2023/04/13 02:05:13;;;;;;;0.20;0.10;;;;;;;;;;4963061;28;20172;-82
2023/04/13 02:07:40;;;;;;;0.20;0.10;;;;;;;;;;4975685;28;20046;-81
2023/04/13 02:10:06;;;;;;;0.20;0.10;;;;;;;;;;4974701;28;20050;-82
2023/04/13 02:12:33;;;;;;;0.20;0.10;;;;;;;;;;4967214;28;20041;-82
2023/04/13 02:15:00;;;;;;;0.20;0.10;;;;;;;;;;4970567;28;20050;-83
2023/04/13 02:17:28;;;;;;;0.20;0.10;;;;;;;;;;4962667;28;20038;-80
2023/04/13 02:19:55;;;;;;;0.20;0.10;;;;;;;;;;4977530;28;20038;-82
2023/04/13 02:22:21;;;;;;;0.20;0.10;;;;;;;;;;4975805;28;20050;-81
2023/04/13 02:24:49;;;;;;;0.20;0.20;;;;;;;;;;4963697;28;20043;-86
2023/04/13 02:27:15;;;;;;;0.20;0.10;;;;;;;;;;4967233;28;20042;-83
2023/04/13 02:29:41;;;;;;;0.20;0.10;;;;;;;;;;4965092;28;20137;-83
2023/04/13 02:32:07;;;;;;;0.20;0.10;;;;;;;;;;4974439;28;20037;-80
2023/04/13 02:34:34;;;;;;;0.20;0.10;;;;;;;;;;4975780;28;20402;-85
2023/04/13 02:37:01;;;;;;;0.20;0.10;;;;;;;;;;4979064;28;20065;-85
2023/04/13 02:39:27;;;;;;;0.22;0.20;;;;;;;;;;4967444;28;20132;-80
2023/04/13 02:41:53;;;;;;;0.20;0.10;;;;;;;;;;4978634;28;20034;-83
2023/04/13 02:44:20;;;;;;;0.20;0.10;;;;;;;;;;4975098;28;20042;-83
2023/04/13 02:46:47;;;;;;;0.20;0.10;;;;;;;;;;4962865;28;20046;-80
2023/04/13 02:49:13;;;;;;;0.20;0.10;;;;;;;;;;4960464;28;20038;-82
2023/04/13 02:51:39;;;;;;;0.20;0.10;;;;;;;;;;4976683;28;20045;-83
2023/04/13 02:54:08;;;;;;;0.20;0.10;;;;;;;;;;4964868;28;20069;-83
2023/04/13 02:56:34;;;;;;;0.20;0.10;;;;;;;;;;4976816;28;20049;-81
2023/04/13 02:59:00;;;;;;;0.20;0.10;;;;;;;;;;4967049;28;20439;-81
2023/04/13 03:01:28;;;;;;;0.20;0.10;;;;;;;;;;4964318;28;20034;-82
2023/04/13 03:03:55;;;;;;;0.20;0.10;;;;;;;;;;4961595;28;20114;-81
2023/04/13 03:06:23;;;;;;;0.20;0.10;;;;;;;;;;4976442;28;20042;-81
2023/04/13 03:08:50;;;;;;;0.20;0.10;;;;;;;;;;4972321;28;20625;-84
2023/04/13 03:11:17;;;;;;;0.20;0.10;;;;;;;;;;4966162;28;20454;-82
2023/04/13 03:13:43;;;;;;;0.20;0.10;;;;;;;;;;4977421;28;20626;-83
2023/04/13 03:16:10;;;;;;;0.20;0.10;;;;;;;;;;4960983;28;20054;-83
2023/04/13 03:18:37;;;;;;;0.20;0.10;;;;;;;;;;4979591;28;20034;-86
2023/04/13 03:21:04;;;;;;;0.20;0.10;;;;;;;;;;4961852;28;20138;-83
2023/04/13 03:23:30;;;;;;;0.20;0.10;;;;;;;;;;4970156;28;20096;-83
2023/04/13 03:25:57;;;;;;;0.28;0.17;;;;;;;;;;4957520;28;20042;-80
2023/04/13 03:28:23;;;;;;;0.20;0.10;;;;;;;;;;4965295;28;20042;-83
2023/04/13 03:30:49;;;;;;;0.20;0.10;;;;;;;;;;4957048;28;20042;-84
2023/04/13 03:33:15;;;;;;;0.20;0.10;;;;;;;;;;4960649;28;20381;-85
2023/04/13 03:35:41;;;;;;;0.20;0.10;;;;;;;;;;4970051;28;20058;-83
2023/04/13 03:38:10;;;;;;;0.20;0.10;;;;;;;;;;4966408;28;20283;-83
2023/04/13 03:40:36;;;;;;;0.68;0.57;;;;;;;;;;4968078;28;20041;-85
2023/04/13 03:43:02;;;;;;;0.20;0.10;;;;;;;;;;4966066;28;20046;-86
2023/04/13 03:45:28;;;;;;;0.20;0.10;;;;;;;;;;4956513;28;20050;-83
2023/04/13 03:47:54;;;;;;;0.20;0.10;;;;;;;;;;4974557;28;20053;-84
2023/04/13 03:50:21;;;;;;;0.20;0.10;;;;;;;;;;4963088;28;20491;-81
2023/04/13 03:52:47;;;;;;;0.20;0.10;;;;;;;;;;4975756;28;20041;-85
2023/04/13 03:55:13;;;;;;;0.70;0.70;;;;;;;;;;4958425;28;20039;-80
2023/04/13 03:57:41;;;;;;;0.20;0.10;;;;;;;;;;4974796;28;20077;-85
2023/04/13 04:00:12;;;;;;;0.20;0.10;;;;;;;;;;4978577;28;20030;-82
2023/04/13 04:02:38;;;;;;;0.20;0.10;;;;;;;;;;4977208;28;20062;-82
2023/04/13 04:05:05;;;;;;;0.20;0.10;;;;;;;;;;4965782;28;20046;-85
2023/04/13 04:07:31;;;;;;;0.20;0.10;;;;;;;;;;4972987;28;20046;-82
2023/04/13 04:09:57;;;;;;;0.20;0.10;;;;;;;;;;4965410;28;20546;-82
2023/04/13 04:12:23;;;;;;;0.20;0.10;;;;;;;;;;4971283;28;20050;-82
2023/04/13 04:14:48;;;;;;;0.20;0.10;;;;;;;;;;4963895;28;20059;-82
2023/04/13 04:17:14;;;;;;;0.47;0.20;;;;;;;;;;4964250;28;20231;-82
2023/04/13 04:19:41;;;;;;;0.20;0.10;;;;;;;;;;4974442;28;20070;-81
2023/04/13 04:22:07;;;;;;;0.20;0.10;;;;;;;;;;4970336;28;20042;-82
2023/04/13 04:24:34;;;;;;;0.73;0.30;;;;;;;;;;4975036;28;20874;-81
2023/04/13 04:27:00;;;;;;;0.20;0.10;;;;;;;;;;4976907;28;20050;-82
2023/04/13 04:29:32;;;;;;;0.20;0.10;;;;;;;;;;4973144;28;20049;-83
2023/04/13 04:32:02;;;;;;;0.85;0.30;;;;;;;;;;4964322;28;20063;-82
2023/04/13 04:34:28;;;;;;;0.20;0.10;;;;;;;;;;4967972;28;20045;-84
2023/04/13 04:36:54;;;;;;;0.20;0.10;;;;;;;;;;4978304;28;20043;-81
2023/04/13 04:39:21;;;;;;;0.20;0.10;;;;;;;;;;4974315;28;20066;-83
2023/04/13 04:41:53;;;;;;;0.20;0.10;;;;;;;;;;4967754;28;20046;-84
2023/04/13 04:44:29;;;;;;;0.20;0.10;;;;;;;;;;4976658;28;20047;-82
2023/04/13 04:46:55;;;;;;;0.20;0.10;;;;;;;;;;4969316;28;20051;-85
2023/04/13 04:49:21;;;;;;;0.20;0.10;;;;;;;;;;4963587;28;20133;-84
2023/04/13 04:51:48;;;;;;;0.20;0.10;;;;;;;;;;4966482;28;20042;-85
2023/04/13 04:54:15;;;;;;;0.20;0.10;;;;;;;;;;4965704;28;20494;-83
2023/04/13 04:56:41;;;;;;;0.20;0.10;;;;;;;;;;4980304;28;20077;-83
2023/04/13 04:59:09;;;;;;;0.20;0.10;;;;;;;;;;4994189;28;20468;-83
2023/04/13 05:01:35;;;;;;;0.20;0.10;;;;;;;;;;4972659;28;20066;-84
2023/04/13 05:04:01;;;;;;;0.20;0.10;;;;;;;;;;4974092;28;20970;-85
2023/04/13 05:06:31;;;;;;;0.20;0.10;;;;;;;;;;4978745;28;20046;-84
2023/04/13 05:08:58;;;;;;;0.20;0.10;;;;;;;;;;4972153;28;20494;-85
2023/04/13 05:11:26;;;;;;;0.20;0.10;;;;;;;;;;4953984;28;20545;-83
2023/04/13 05:13:55;;;;;;;0.20;0.10;;;;;;;;;;4971878;28;20038;-82
2023/04/13 05:16:21;;;;;;;0.20;0.10;;;;;;;;;;4965153;28;20141;-84
2023/04/13 05:18:47;;;;;;;0.28;0.10;;;;;;;;;;5004993;23;20560;-82
2023/04/13 05:21:14;;;;;;;0.20;0.10;;;;;;;;;;4986715;28;20038;-82
2023/04/13 05:23:41;;;;;;;0.20;0.10;;;;;;;;;;5011661;28;20052;-83
2023/04/13 05:26:16;;;;;;;0.20;0.10;;;;;;;;;;5004567;28;20192;-83
2023/04/13 05:28:42;;;;;;;0.20;0.10;;;;;;;;;;4983821;28;20537;-85
2023/04/13 05:31:09;;;;;;;0.20;0.10;;;;;;;;;;4973346;28;20621;-83
2023/04/13 05:33:36;;;;;;;0.20;0.10;;;;;;;;;;4978937;28;20137;-81
2023/04/13 05:36:03;;;;;;;0.20;0.20;;;;;;;;;;4992044;28;20038;-82
2023/04/13 05:38:29;;;;;;;0.20;0.10;;;;;;;;;;4997118;28;20050;-81
2023/04/13 05:40:56;;;;;;;0.20;0.00;;;;;;;;;;4979163;28;20184;-83
2023/04/13 05:43:22;;;;;;;0.20;0.10;;;;;;;;;;4999089;28;20434;-82
2023/04/13 05:45:50;;;;;;;0.47;0.30;;;;;;;;;;4995829;28;20490;-82
2023/04/13 05:48:16;;;;;;;0.20;0.10;;;;;;;;;;4994757;28;20045;-83
2023/04/13 05:50:42;;;;;;;0.30;0.30;;;;;;;;;;4997419;28;20413;-81
2023/04/13 05:53:09;;;;;;;0.20;0.10;;;;;;;;;;4999449;28;20060;-85
2023/04/13 05:55:35;;;;;;;0.20;0.10;;;;;;;;;;4996992;28;20046;-83
2023/04/13 05:58:02;;;;;;;0.20;0.10;;;;;;;;;;4996733;28;20038;-79
2023/04/13 06:00:29;;;;;;;0.55;0.50;;;;;;;;;;4999684;28;20609;-85
2023/04/13 06:02:58;;;;;;;0.20;0.10;;;;;;;;;;4997928;28;20157;-84
2023/04/13 06:05:24;;;;;;;0.20;0.10;;;;;;;;;;4984204;28;20046;-82
2023/04/13 06:07:50;;;;;;;0.20;0.10;;;;;;;;;;4980887;28;20065;-85
2023/04/13 06:10:18;;;;;;;0.20;0.10;;;;;;;;;;4997378;28;20046;-83
2023/04/13 06:12:47;;;;;;;0.20;0.10;;;;;;;;;;4978181;28;20038;-83
2023/04/13 06:15:13;;;;;;;0.20;0.10;;;;;;;;;;4978175;28;20041;-83
2023/04/13 06:17:40;;;;;;;0.20;0.10;;;;;;;;;;4984755;28;20040;-82
2023/04/13 06:20:07;;;;;;;0.20;0.10;;;;;;;;;;4998580;28;20331;-83
2023/04/13 06:22:33;;;;;;;0.28;0.28;;;;;;;;;;4980048;28;20418;-83
2023/04/13 06:25:02;;;;;;;0.20;0.10;;;;;;;;;;4982798;28;20738;-83
2023/04/13 06:27:28;;;;;;;0.20;0.10;;;;;;;;;;4997004;28;20084;-85
2023/04/13 06:29:56;;;;;;;0.20;0.10;;;;;;;;;;4980333;28;20423;-83
2023/04/13 06:32:22;;;;;;;0.20;0.10;;;;;;;;;;4980413;28;20038;-86
2023/04/13 06:34:49;;;;;;;0.20;0.20;;;;;;;;;;5001365;28;20104;-82
2023/04/13 06:37:16;;;;;;;0.20;0.10;;;;;;;;;;4996555;28;20435;-82
2023/04/13 06:39:45;;;;;;;0.20;0.10;;;;;;;;;;4996674;28;20441;-82
2023/04/13 06:42:18;;;;;;;0.20;0.10;;;;;;;;;;4977735;28;20038;-86
2023/04/13 06:44:47;;;;;;;0.95;0.43;;;;;;;;;;4998685;28;20051;-82
2023/04/13 06:47:13;;;;;;;0.20;0.10;;;;;;;;;;4980743;28;20152;-85
2023/04/13 06:49:39;;;;;;;0.20;0.10;;;;;;;;;;4976162;28;20119;-85
2023/04/13 06:52:05;;;;;;;0.20;0.10;;;;;;;;;;4979346;28;20050;-83
2023/04/13 06:54:35;;;;;;;0.20;0.10;;;;;;;;;;4981597;28;20128;-83
2023/04/13 06:57:01;;;;;;;0.20;0.10;;;;;;;;;;4978110;28;20041;-85
2023/04/13 06:59:30;;;;;;;0.20;0.10;;;;;;;;;;4990524;28;20045;-84
2023/04/13 07:01:56;;;;;;;0.20;0.10;;;;;;;;;;4977027;28;20157;-83
2023/04/13 07:04:22;;;;;;;0.20;0.10;;;;;;;;;;4993649;28;20491;-84
2023/04/13 07:06:48;;;;;;;0.20;0.10;;;;;;;;;;4999265;28;20053;-81
2023/04/13 07:09:14;;;;;;;0.30;0.25;;;;;;;;;;5002808;28;20491;-83
2023/04/13 07:11:40;;;;;;;0.20;0.10;;;;;;;;;;4984563;28;20056;-82
2023/04/13 07:14:06;;;;;;;0.20;0.10;;;;;;;;;;4987453;28;20476;-86
2023/04/13 07:16:35;;;;;;;0.20;0.10;;;;;;;;;;4990844;28;20073;-86
2023/04/13 07:19:01;;;;;;;0.47;0.28;;;;;;;;;;4981587;28;20037;-83
2023/04/13 07:21:33;;;;;;;0.20;0.10;;;;;;;;;;4988992;28;20777;-83
2023/04/13 07:23:59;;;;;;;0.20;0.10;;;;;;;;;;4991531;28;20059;-83
2023/04/13 07:26:25;;;;;;;0.25;0.25;;;;;;;;;;4995931;28;20041;-86
2023/04/13 07:28:52;;;;;;;0.20;0.10;;;;;;;;;;4995074;28;20045;-83
2023/04/13 07:31:23;;;;;;;0.20;0.10;;;;;;;;;;5003312;28;20058;-85
2023/04/13 07:33:55;;;;;;;0.20;0.10;;;;;;;;;;4993392;28;20036;-84
2023/04/13 07:36:22;;;;;;;0.20;0.10;;;;;;;;;;4994870;28;20042;-85
2023/04/13 07:38:48;;;;;;;0.20;0.10;;;;;;;;;;5013126;28;20052;-86
2023/04/13 07:41:20;;;;;;;0.20;0.10;;;;;;;;;;5007804;28;20037;-82
2023/04/13 07:43:46;;;;;;;0.20;0.10;;;;;;;;;;5006335;28;20105;-83
2023/04/13 07:46:15;;;;;;;0.20;0.10;;;;;;;;;;5007368;28;20935;-83
2023/04/13 07:48:42;;;;;;;0.20;0.10;;;;;;;;;;5005179;28;20039;-81
2023/04/13 07:51:17;;;;;;;0.20;0.10;;;;;;;;;;4990436;28;20381;-83
2023/04/13 07:53:43;;;;;;;0.20;0.10;;;;;;;;;;4992143;28;20038;-86
2023/04/13 07:56:09;;;;;;;0.20;0.10;;;;;;;;;;4982775;28;20088;-83
2023/04/13 07:58:36;;;;;;;0.20;0.05;;;;;;;;;;5000684;28;20033;-83
2023/04/13 08:01:02;;;;;;;0.20;0.10;;;;;;;;;;4993877;28;20358;-84
2023/04/13 08:03:31;;;;;;;0.25;0.20;;;;;;;;;;4986733;28;20351;-85
2023/04/13 08:05:58;;;;;;;0.20;0.10;;;;;;;;;;4988054;28;20092;-83
2023/04/13 08:08:24;;;;;;;0.20;0.10;;;;;;;;;;4988552;28;20041;-85
2023/04/13 08:10:50;;;;;;;0.20;0.10;;;;;;;;;;5012329;28;20060;-83
2023/04/13 08:13:16;;;;;;;0.20;0.10;;;;;;;;;;5014684;28;20041;-83
2023/04/13 08:15:42;;;;;;;0.20;0.10;;;;;;;;;;5002798;28;20396;-81
2023/04/13 08:18:08;;;;;;;0.20;0.10;;;;;;;;;;5002602;28;20037;-81
2023/04/13 08:20:35;;;;;;;0.40;0.20;;;;;;;;;;5000424;28;20125;-85
2023/04/13 08:23:02;;;;;;;0.20;0.10;;;;;;;;;;5006505;28;20050;-83
2023/04/13 08:25:28;;;;;;;0.25;0.17;;;;;;;;;;5009269;28;20057;-80
2023/04/13 08:27:55;;;;;;;0.20;0.10;;;;;;;;;;4992706;28;20049;-82
2023/04/13 08:30:21;;;;;;;0.20;0.10;;;;;;;;;;5000090;28;20041;-83
2023/04/13 08:32:47;;;;;;;0.20;0.10;;;;;;;;;;4998528;28;20046;-83
2023/04/13 08:35:14;;;;;;;0.20;0.10;;;;;;;;;;5006271;28;20414;-82
2023/04/13 08:37:41;;;;;;;0.20;0.10;;;;;;;;;;4993670;28;20045;-82
2023/04/13 08:40:10;;;;;;;0.20;0.10;;;;;;;;;;4988615;28;20046;-84
2023/04/13 08:42:40;;;;;;;0.20;0.10;;;;;;;;;;4991779;28;20045;-83
2023/04/13 08:45:08;;;;;;;0.20;0.10;;;;;;;;;;5006088;28;20040;-83
2023/04/13 08:47:34;;;;;;;0.20;0.10;;;;;;;;;;4992370;28;20052;-79
2023/04/13 08:50:01;;;;;;;0.20;0.10;;;;;;;;;;4993618;28;20053;-84
2023/04/13 08:52:27;;;;;;;0.20;0.10;;;;;;;;;;5013092;28;20038;-82
2023/04/13 08:54:54;;;;;;;0.20;0.10;;;;;;;;;;4995384;28;20678;-85
2023/04/13 08:57:20;;;;;;;0.20;0.10;;;;;;;;;;5007539;28;20428;-83
2023/04/13 08:59:47;;;;;;;0.20;0.10;;;;;;;;;;5004810;28;20044;-83
2023/04/13 09:02:13;;;;;;;0.20;0.10;;;;;;;;;;5000648;28;20057;-84
2023/04/13 09:04:43;;;;;;;0.20;0.05;;;;;;;;;;5004938;28;20041;-82
2023/04/13 09:07:12;;;;;;;0.20;0.10;;;;;;;;;;4985877;28;20048;-86
2023/04/13 09:09:41;;;;;;;0.20;0.10;;;;;;;;;;4980365;28;20545;-84
2023/04/13 09:12:08;;;;;;;0.20;0.10;;;;;;;;;;4998683;28;20111;-83
2023/04/13 09:14:37;;;;;;;0.20;0.10;;;;;;;;;;4988481;28;20098;-82
2023/04/13 09:17:03;;;;;;;0.20;0.10;;;;;;;;;;5003630;28;20508;-83
2023/04/13 09:19:33;;;;;;;0.20;0.10;;;;;;;;;;4997965;28;20037;-83
2023/04/13 09:21:59;;;;;;;0.20;0.00;;;;;;;;;;4986214;28;20034;-82
2023/04/13 09:24:26;;;;;;;0.20;0.10;;;;;;;;;;4996196;28;20116;-83
2023/04/13 09:26:52;;;;;;;0.20;0.10;;;;;;;;;;4985768;28;20042;-84
2023/04/13 09:29:20;;;;;;;0.20;0.10;;;;;;;;;;4990394;28;20061;-84
2023/04/13 09:31:47;;;;;;;0.20;0.10;;;;;;;;;;4992783;28;20037;-83
2023/04/13 09:34:25;;;;;;;0.20;0.10;;;;;;;;;;5011328;28;20092;-84
2023/04/13 09:36:51;;;;;;;0.20;0.10;;;;;;;;;;5007350;28;20044;-80
2023/04/13 09:39:23;;;;;;;0.20;0.10;;;;;;;;;;4989693;28;20037;-85
2023/04/13 09:41:50;;;;;;;0.20;0.10;;;;;;;;;;4984378;28;20049;-83
2023/04/13 09:44:19;;;;;;;0.20;0.10;;;;;;;;;;4986271;28;20045;-83
2023/04/13 09:46:55;;;;;;;0.20;0.10;;;;;;;;;;5008935;28;20042;-86
2023/04/13 09:49:21;;;;;;;0.20;0.10;;;;;;;;;;5004143;28;20489;-85
2023/04/13 09:51:48;;;;;;;0.20;0.10;;;;;;;;;;4990665;28;20045;-83
2023/04/13 09:54:19;;;;;;;0.20;0.10;;;;;;;;;;5006014;28;20402;-83
2023/04/13 09:56:46;;;;;;;0.20;0.10;;;;;;;;;;5009747;28;20053;-82
2023/04/13 09:59:13;;;;;;;0.20;0.00;;;;;;;;;;4989668;28;20877;-84
2023/04/13 10:01:43;;;;;;;0.20;0.10;;;;;;;;;;5026808;28;20440;-83
2023/04/13 10:04:18;;;;;;;0.20;0.10;;;;;;;;;;4987405;28;20491;-85
2023/04/13 10:06:46;;;;;;;0.20;0.10;;;;;;;;;;5006331;28;20037;-82
2023/04/13 10:09:15;;;;;;;0.20;0.08;;;;;;;;;;4987398;28;20131;-84
2023/04/13 10:11:45;;;;;;;0.20;0.10;;;;;;;;;;4990286;28;20133;-84
2023/04/13 10:14:20;;;;;;;0.20;0.10;;;;;;;;;;4987885;28;20041;-86
2023/04/13 10:16:56;;;;;;;0.20;0.10;;;;;;;;;;4984261;28;20533;-84
2023/04/13 10:19:29;;;;;;;0.20;0.10;;;;;;;;;;4983773;28;20064;-85
2023/04/13 10:21:57;;;;;;;0.20;0.10;;;;;;;;;;4985065;28;20347;-87
2023/04/13 10:24:24;;;;;;;0.20;0.00;;;;;;;;;;4986500;28;20042;-84
2023/04/13 10:26:54;;;;;;;0.22;0.22;;;;;;;;;;5002193;28;20258;-83
2023/04/13 10:29:30;;;;;;;0.20;0.10;;;;;;;;;;5003311;28;20498;-85
2023/04/13 10:32:01;;;;;;;0.20;0.10;;;;;;;;;;5006751;28;20605;-85
2023/04/13 10:34:28;;;;;;;0.20;0.10;;;;;;;;;;4992594;28;20101;-83
2023/04/13 10:36:57;;;;;;;0.20;0.10;;;;;;;;;;4988047;28;20454;-82
2023/04/13 10:39:26;;;;;;;0.20;0.10;;;;;;;;;;5025208;28;20033;-84
2023/04/13 10:42:03;;;;;;;0.20;0.10;;;;;;;;;;4982617;28;20042;-84
2023/04/13 10:44:49;;;;;;;0.20;0.10;;;;;;;;;;4989342;28;20068;-84
2023/04/13 10:47:22;;;;;;;0.20;0.10;;;;;;;;;;5000956;28;20078;-83
2023/04/13 10:49:50;;;;;;;0.20;0.10;;;;;;;;;;4987530;28;20100;-80
2023/04/13 10:52:17;;;;;;;0.20;0.10;;;;;;;;;;4986366;28;20080;-83
2023/04/13 10:54:43;;;;;;;0.20;0.10;;;;;;;;;;4983279;28;20041;-82
2023/04/13 10:57:15;;;;;;;0.20;0.10;;;;;;;;;;4989943;28;20065;-83
2023/04/13 10:59:55;;;;;;;0.60;0.57;;;;;;;;;;4987803;28;20498;-85
2023/04/13 11:02:30;;;;;;;0.20;0.10;;;;;;;;;;4990489;28;20042;-83
2023/04/13 11:04:56;;;;;;;0.20;0.10;;;;;;;;;;4997122;28;20246;-83
2023/04/13 11:07:24;;;;;;;0.20;0.10;;;;;;;;;;5021274;28;20042;-83
2023/04/13 11:09:50;;;;;;;0.20;0.10;;;;;;;;;;4988429;28;20413;-82
2023/04/13 11:12:17;;;;;;;0.20;0.10;;;;;;;;;;4983818;28;20049;-81
2023/04/13 11:14:47;;;;;;;0.20;0.10;;;;;;;;;;4990100;28;20042;-83
2023/04/13 11:17:17;;;;;;;0.20;0.10;;;;;;;;;;4983501;28;20129;-84
2023/04/13 11:22:51;;;;;;;0.20;0.10;;;;;;;;;;5018668;28;20041;-85
2023/04/13 11:25:24;;;;;;;0.20;0.10;;;;;;;;;;5003720;28;20119;-82
2023/04/13 11:28:00;;;;;;;0.20;0.10;;;;;;;;;;5001672;28;20548;-87
2023/04/13 11:30:26;;;;;;;0.20;0.10;;;;;;;;;;5018725;28;20038;-84
2023/04/13 11:32:53;;;;;;;0.20;0.10;;;;;;;;;;5012597;28;20139;-85
2023/04/13 11:35:21;;;;;;;0.20;0.10;;;;;;;;;;4997762;28;20045;-82
2023/04/13 11:37:49;;;;;;;0.30;0.30;;;;;;;;;;5021422;28;20458;-82
2023/04/13 11:40:20;;;;;;;0.20;0.10;;;;;;;;;;5012518;28;20052;-84
2023/04/13 11:42:53;;;;;;;0.20;0.10;;;;;;;;;;5020409;28;20052;-83
2023/04/13 11:45:20;;;;;;;0.20;0.10;;;;;;;;;;5018954;28;20053;-83
2023/04/13 11:47:46;;;;;;;0.20;0.10;;;;;;;;;;5009986;28;20359;-85
2023/04/13 11:50:13;;;;;;;0.20;0.10;;;;;;;;;;5015614;28;20041;-83
2023/04/13 11:52:40;;;;;;;0.20;0.10;;;;;;;;;;5012927;28;20056;-81
2023/04/13 11:55:06;;;;;;;0.20;0.10;;;;;;;;;;5014014;28;20038;-85
2023/04/13 11:57:35;;;;;;;0.35;0.17;;;;;;;;;;5003190;28;20037;-84
2023/04/13 12:00:09;;;;;;;0.20;0.10;;;;;;;;;;5013258;28;20114;-85
2023/04/13 12:02:39;;;;;;;0.20;0.10;;;;;;;;;;5003998;28;20433;-82
2023/04/13 12:05:06;;;;;;;0.20;0.10;;;;;;;;;;5004191;28;20069;-85
2023/04/13 12:07:32;;;;;;;0.20;0.10;;;;;;;;;;5006178;28;20033;-83
2023/04/13 12:09:58;;;;;;;0.20;0.10;;;;;;;;;;5001418;28;20045;-86
2023/04/13 12:12:25;;;;;;;0.20;0.10;;;;;;;;;;5026850;28;20059;-82
2023/04/13 12:14:56;;;;;;;0.20;0.13;;;;;;;;;;5013521;28;20034;-81
2023/04/13 12:17:30;;;;;;;0.20;0.10;;;;;;;;;;5018225;28;20145;-84
2023/04/13 12:20:00;;;;;;;0.20;0.10;;;;;;;;;;5033641;28;20060;-87
2023/04/13 12:22:36;;;;;;;0.20;0.10;;;;;;;;;;4999643;28;20476;-84
2023/04/13 12:25:12;;;;;;;0.20;0.10;;;;;;;;;;4997913;28;20037;-83
2023/04/13 12:27:42;;;;;;;1.65;1.38;;;;;;;;;;4998893;28;20425;-84
2023/04/13 12:30:17;;;;;;;0.20;0.10;;;;;;;;;;5002623;28;20401;-79
2023/04/13 12:32:45;;;;;;;0.20;0.10;;;;;;;;;;5018280;28;20146;-81
2023/04/13 12:35:11;;;;;;;0.20;0.10;;;;;;;;;;5004324;28;21684;-83
2023/04/13 12:37:41;;;;;;;0.20;0.10;;;;;;;;;;5006153;28;20460;-83
2023/04/13 12:40:11;;;;;;;0.20;0.10;;;;;;;;;;5003301;28;20041;-83
2023/04/13 12:42:47;;;;;;;0.20;0.00;;;;;;;;;;5016992;28;20148;-83
2023/04/13 12:45:13;;;;;;;0.20;0.10;;;;;;;;;;5012828;28;20042;-84
2023/04/13 12:47:40;;;;;;;0.20;0.10;;;;;;;;;;5005570;28;20500;-85
2023/04/13 12:50:06;;;;;;;0.20;0.10;;;;;;;;;;5016503;28;20085;-82
2023/04/13 12:52:33;;;;;;;0.20;0.10;;;;;;;;;;5005107;28;20445;-84
2023/04/13 12:54:59;;;;;;;0.40;0.40;;;;;;;;;;5014470;28;20125;-87
2023/04/13 12:57:29;;;;;;;0.20;0.10;;;;;;;;;;5020214;28;20061;-81
2023/04/13 12:59:55;;;;;;;0.20;0.10;;;;;;;;;;5019031;28;20045;-83
2023/04/13 13:02:27;;;;;;;0.20;0.10;;;;;;;;;;5002042;28;20124;-82
2023/04/13 13:04:57;;;;;;;0.25;0.20;;;;;;;;;;5007751;28;20133;-83
2023/04/13 13:07:23;;;;;;;0.35;0.30;;;;;;;;;;5008686;28;20486;-80
2023/04/13 13:09:50;;;;;;;0.20;0.10;;;;;;;;;;5018328;28;20056;-84
2023/04/13 13:12:16;;;;;;;0.20;0.10;;;;;;;;;;5005817;28;20038;-83
2023/04/13 13:14:42;;;;;;;0.20;0.10;;;;;;;;;;5009086;28;20040;-82
2023/04/13 13:17:08;;;;;;;0.20;0.13;;;;;;;;;;5003372;28;20034;-76
2023/04/13 13:19:34;;;;;;;0.20;0.10;;;;;;;;;;5023175;28;20036;-81
2023/04/13 13:22:01;;;;;;;0.20;0.10;;;;;;;;;;5023078;28;20627;-84
2023/04/13 13:24:27;;;;;;;0.20;0.10;;;;;;;;;;5000766;28;20077;-84
2023/04/13 13:26:54;;;;;;;0.20;0.10;;;;;;;;;;5019170;28;20514;-83
2023/04/13 13:29:22;;;;;;;0.20;0.10;;;;;;;;;;5007290;28;20053;-84
2023/04/13 13:31:50;;;;;;;0.20;0.10;;;;;;;;;;5014962;28;20048;-85
2023/04/13 13:34:16;;;;;;;0.20;0.10;;;;;;;;;;5007017;28;20033;-81
2023/04/13 13:36:42;;;;;;;0.20;0.10;;;;;;;;;;5008454;28;20045;-82
2023/04/13 13:39:08;;;;;;;0.20;0.10;;;;;;;;;;5006684;28;20381;-83
2023/04/13 13:41:34;;;;;;;0.20;0.10;;;;;;;;;;5006060;28;20514;-85
2023/04/13 13:44:00;;;;;;;0.20;0.10;;;;;;;;;;5019555;28;20120;-85
2023/04/13 13:46:26;;;;;;;0.20;0.10;;;;;;;;;;5017462;28;20083;-82
2023/04/13 13:48:53;;;;;;;0.20;0.10;;;;;;;;;;4998308;28;20045;-84
2023/04/13 13:51:19;;;;;;;0.20;0.10;;;;;;;;;;4999031;28;20497;-80
2023/04/13 13:53:45;;;;;;;0.20;0.10;;;;;;;;;;5015523;28;20043;-84
2023/04/13 13:56:11;;;;;;;0.25;0.25;;;;;;;;;;5016084;28;20038;-82
2023/04/13 13:58:37;;;;;;;0.20;0.10;;;;;;;;;;5006536;28;20044;-83
2023/04/13 14:01:04;;;;;;;0.20;0.10;;;;;;;;;;5006408;28;20499;-84
2023/04/13 14:03:31;;;;;;;0.20;0.10;;;;;;;;;;5006425;28;20505;-84
2023/04/13 14:05:57;;;;;;;0.30;0.30;;;;;;;;;;5001883;28;20425;-81
2023/04/13 14:08:26;;;;;;;0.20;0.10;;;;;;;;;;4999372;28;20054;-80
2023/04/13 14:10:52;;;;;;;0.20;0.10;;;;;;;;;;5014373;28;20041;-83
2023/04/13 14:13:18;;;;;;;0.20;0.10;;;;;;;;;;5014567;28;20115;-82
2023/04/13 14:15:44;;;;;;;0.20;0.10;;;;;;;;;;5016227;28;20072;-81
2023/04/13 14:18:13;;;;;;;0.20;0.10;;;;;;;;;;5007202;28;20041;-82
2023/04/13 14:20:39;;;;;;;0.20;0.10;;;;;;;;;;5015794;28;20129;-85
2023/04/13 14:23:05;;;;;;;0.20;0.10;;;;;;;;;;5012181;28;20111;-81
2023/04/13 14:25:34;;;;;;;0.20;0.20;;;;;;;;;;5004380;28;20311;-83
2023/04/13 14:28:07;;;;;;;0.20;0.10;;;;;;;;;;5003531;28;20044;-80
2023/04/13 14:30:36;;;;;;;0.20;0.10;;;;;;;;;;5015815;28;21036;-81
2023/04/13 14:33:05;;;;;;;0.20;0.10;;;;;;;;;;5012021;28;20130;-82
2023/04/13 14:35:31;;;;;;;0.20;0.10;;;;;;;;;;4999698;28;20075;-82
2023/04/13 14:37:58;;;;;;;0.20;0.10;;;;;;;;;;5011272;28;20041;-81
2023/04/13 14:40:26;;;;;;;0.20;0.10;;;;;;;;;;5011688;28;20061;-82
2023/04/13 14:42:53;;;;;;;0.20;0.10;;;;;;;;;;5003401;28;20095;-82
2023/04/13 14:45:19;;;;;;;0.20;0.10;;;;;;;;;;5010265;28;20041;-83
2023/04/13 14:47:45;;;;;;;0.20;0.10;;;;;;;;;;5014007;28;20348;-79
2023/04/13 14:50:12;;;;;;;0.20;0.10;;;;;;;;;;5011999;28;20080;-83